sensor_id;sensor_type;location;lat;lon;timestamp;pressure;altitude;pressure_sealevel;temperature;humidity
51031;BME280;37058;41.442;23.240;2023-04-22T00:00:36;100108.97;;;11.79;76.80
51031;BME280;37058;41.442;23.240;2023-04-22T00:03:03;100103.19;;;11.70;77.41
51031;BME280;37058;41.442;23.240;2023-04-22T00:05:29;100107.53;;;11.66;76.61
51031;BME280;37058;41.442;23.240;2023-04-22T00:07:55;100104.75;;;11.56;76.78
51031;BME280;37058;41.442;23.240;2023-04-22T00:10:21;100101.78;;;11.57;77.11
51031;BME280;37058;41.442;23.240;2023-04-22T00:12:46;100111.88;;;11.57;77.00
51031;BME280;37058;41.442;23.240;2023-04-22T00:15:12;100110.25;;;11.56;77.39
51031;BME280;37058;41.442;23.240;2023-04-22T00:17:39;100109.44;;;11.60;76.70
51031;BME280;37058;41.442;23.240;2023-04-22T00:20:06;100112.97;;;11.56;77.15
51031;BME280;37058;41.442;23.240;2023-04-22T00:22:32;100109.69;;;11.59;77.25
51031;BME280;37058;41.442;23.240;2023-04-22T00:24:58;100122.31;;;11.65;76.95
51031;BME280;37058;41.442;23.240;2023-04-22T00:27:24;100118.50;;;11.71;76.88
51031;BME280;37058;41.442;23.240;2023-04-22T00:29:50;100120.16;;;11.77;76.50
51031;BME280;37058;41.442;23.240;2023-04-22T00:32:16;100119.09;;;11.83;76.07
51031;BME280;37058;41.442;23.240;2023-04-22T00:34:42;100118.59;;;11.86;75.80
51031;BME280;37058;41.442;23.240;2023-04-22T00:37:08;100122.66;;;11.79;75.60
51031;BME280;37058;41.442;23.240;2023-04-22T00:39:33;100124.78;;;11.66;75.20
51031;BME280;37058;41.442;23.240;2023-04-22T00:42:00;100127.22;;;11.58;75.95
51031;BME280;37058;41.442;23.240;2023-04-22T00:44:26;100129.38;;;11.56;76.36
51031;BME280;37058;41.442;23.240;2023-04-22T00:46:52;100125.53;;;11.57;76.55
51031;BME280;37058;41.442;23.240;2023-04-22T00:49:19;100129.66;;;11.59;76.24
51031;BME280;37058;41.442;23.240;2023-04-22T00:51:45;100141.91;;;11.46;75.24
51031;BME280;37058;41.442;23.240;2023-04-22T00:54:11;100134.44;;;11.32;75.84
51031;BME280;37058;41.442;23.240;2023-04-22T00:56:37;100151.13;;;11.30;76.21
51031;BME280;37058;41.442;23.240;2023-04-22T00:59:04;100144.50;;;11.21;77.01
51031;BME280;37058;41.442;23.240;2023-04-22T01:01:30;100143.59;;;11.10;77.75
51031;BME280;37058;41.442;23.240;2023-04-22T01:03:56;100140.97;;;10.88;78.42
51031;BME280;37058;41.442;23.240;2023-04-22T01:06:23;100145.44;;;10.67;79.97
51031;BME280;37058;41.442;23.240;2023-04-22T01:08:49;100143.06;;;10.76;79.86
51031;BME280;37058;41.442;23.240;2023-04-22T01:11:15;100149.94;;;10.83;79.86
51031;BME280;37058;41.442;23.240;2023-04-22T01:13:41;100148.59;;;10.86;79.71
51031;BME280;37058;41.442;23.240;2023-04-22T01:16:08;100155.78;;;10.92;79.69
51031;BME280;37058;41.442;23.240;2023-04-22T01:18:38;100160.09;;;10.88;79.55
51031;BME280;37058;41.442;23.240;2023-04-22T01:21:04;100162.81;;;10.88;79.03
51031;BME280;37058;41.442;23.240;2023-04-22T01:23:32;100162.31;;;10.91;78.74
51031;BME280;37058;41.442;23.240;2023-04-22T01:25:58;100166.13;;;10.90;78.97
51031;BME280;37058;41.442;23.240;2023-04-22T01:28:24;100160.66;;;10.90;78.69
51031;BME280;37058;41.442;23.240;2023-04-22T01:30:51;100155.81;;;10.97;78.49
51031;BME280;37058;41.442;23.240;2023-04-22T01:33:17;100160.47;;;10.97;78.89
51031;BME280;37058;41.442;23.240;2023-04-22T01:35:44;100159.31;;;10.93;78.72
51031;BME280;37058;41.442;23.240;2023-04-22T01:38:11;100164.53;;;10.94;78.58
51031;BME280;37058;41.442;23.240;2023-04-22T01:40:38;100160.38;;;10.87;79.50
51031;BME280;37058;41.442;23.240;2023-04-22T01:43:05;100157.31;;;10.83;79.42
51031;BME280;37058;41.442;23.240;2023-04-22T01:45:31;100162.44;;;10.74;79.94
51031;BME280;37058;41.442;23.240;2023-04-22T01:47:57;100170.03;;;10.67;80.35
51031;BME280;37058;41.442;23.240;2023-04-22T01:50:23;100157.44;;;10.61;80.83
51031;BME280;37058;41.442;23.240;2023-04-22T01:52:49;100167.94;;;10.47;81.75
51031;BME280;37058;41.442;23.240;2023-04-22T01:55:15;100170.09;;;10.45;82.18
51031;BME280;37058;41.442;23.240;2023-04-22T01:57:41;100166.19;;;10.36;83.05
51031;BME280;37058;41.442;23.240;2023-04-22T02:00:08;100165.22;;;10.25;84.24
51031;BME280;37058;41.442;23.240;2023-04-22T02:02:34;100164.91;;;10.22;85.00
51031;BME280;37058;41.442;23.240;2023-04-22T02:05:00;100167.88;;;10.20;85.13
51031;BME280;37058;41.442;23.240;2023-04-22T02:07:26;100170.38;;;10.22;85.10
51031;BME280;37058;41.442;23.240;2023-04-22T02:09:52;100164.91;;;10.22;85.00
51031;BME280;37058;41.442;23.240;2023-04-22T02:12:18;100171.19;;;10.22;84.85
51031;BME280;37058;41.442;23.240;2023-04-22T02:14:44;100175.31;;;10.25;84.72
51031;BME280;37058;41.442;23.240;2023-04-22T02:17:10;100170.22;;;10.28;84.94
51031;BME280;37058;41.442;23.240;2023-04-22T02:19:36;100160.59;;;10.26;85.17
51031;BME280;37058;41.442;23.240;2023-04-22T02:22:02;100168.78;;;10.26;85.64
51031;BME280;37058;41.442;23.240;2023-04-22T02:24:28;100159.75;;;10.25;85.68
51031;BME280;37058;41.442;23.240;2023-04-22T02:26:53;100162.84;;;10.29;85.81
51031;BME280;37058;41.442;23.240;2023-04-22T02:29:19;100168.50;;;10.27;85.99
51031;BME280;37058;41.442;23.240;2023-04-22T02:31:46;100175.88;;;10.27;86.49
51031;BME280;37058;41.442;23.240;2023-04-22T02:34:11;100174.81;;;10.28;85.88
51031;BME280;37058;41.442;23.240;2023-04-22T02:36:37;100182.25;;;10.32;85.20
51031;BME280;37058;41.442;23.240;2023-04-22T02:39:03;100180.34;;;10.33;84.76
51031;BME280;37058;41.442;23.240;2023-04-22T02:41:30;100179.28;;;10.34;84.34
51031;BME280;37058;41.442;23.240;2023-04-22T02:43:56;100172.72;;;10.35;84.08
51031;BME280;37058;41.442;23.240;2023-04-22T02:46:22;100175.44;;;10.35;84.11
51031;BME280;37058;41.442;23.240;2023-04-22T02:48:48;100180.59;;;10.31;84.08
51031;BME280;37058;41.442;23.240;2023-04-22T02:51:14;100183.59;;;10.30;84.55
51031;BME280;37058;41.442;23.240;2023-04-22T02:53:40;100186.06;;;10.31;84.26
51031;BME280;37058;41.442;23.240;2023-04-22T02:56:06;100184.25;;;10.20;83.58
51031;BME280;37058;41.442;23.240;2023-04-22T02:58:33;100179.00;;;9.91;84.38
51031;BME280;37058;41.442;23.240;2023-04-22T03:00:59;100182.06;;;9.73;85.00
51031;BME280;37058;41.442;23.240;2023-04-22T03:03:25;100176.53;;;9.68;85.26
51031;BME280;37058;41.442;23.240;2023-04-22T03:05:51;100178.69;;;9.66;85.15
51031;BME280;37058;41.442;23.240;2023-04-22T03:08:18;100177.88;;;9.65;85.08
51031;BME280;37058;41.442;23.240;2023-04-22T03:10:44;100175.16;;;9.65;84.83
51031;BME280;37058;41.442;23.240;2023-04-22T03:13:12;100181.88;;;9.58;85.33
51031;BME280;37058;41.442;23.240;2023-04-22T03:15:41;100183.44;;;9.53;85.40
51031;BME280;37058;41.442;23.240;2023-04-22T03:18:07;100181.59;;;9.59;85.54
51031;BME280;37058;41.442;23.240;2023-04-22T03:20:34;100181.88;;;9.58;85.44
51031;BME280;37058;41.442;23.240;2023-04-22T03:23:00;100182.69;;;9.58;85.58
51031;BME280;37058;41.442;23.240;2023-04-22T03:25:27;100191.59;;;9.53;85.91
51031;BME280;37058;41.442;23.240;2023-04-22T03:27:52;100189.91;;;9.47;86.03
51031;BME280;37058;41.442;23.240;2023-04-22T03:30:18;100187.66;;;9.44;86.26
51031;BME280;37058;41.442;23.240;2023-04-22T03:32:44;100183.53;;;9.42;86.62
51031;BME280;37058;41.442;23.240;2023-04-22T03:35:10;100192.63;;;9.47;86.44
51031;BME280;37058;41.442;23.240;2023-04-22T03:37:36;100185.78;;;9.45;86.83
51031;BME280;37058;41.442;23.240;2023-04-22T03:40:02;100189.81;;;9.42;87.21
51031;BME280;37058;41.442;23.240;2023-04-22T03:42:30;100199.94;;;9.47;86.88
51031;BME280;37058;41.442;23.240;2023-04-22T03:44:56;100196.00;;;9.54;86.61
51031;BME280;37058;41.442;23.240;2023-04-22T03:47:22;100200.19;;;9.62;86.40
51031;BME280;37058;41.442;23.240;2023-04-22T03:49:48;100202.22;;;9.72;85.80
51031;BME280;37058;41.442;23.240;2023-04-22T03:52:13;100199.25;;;9.73;85.64
51031;BME280;37058;41.442;23.240;2023-04-22T03:54:39;100192.28;;;9.83;85.57
51031;BME280;37058;41.442;23.240;2023-04-22T03:57:05;100196.13;;;9.87;85.14
51031;BME280;37058;41.442;23.240;2023-04-22T03:59:31;100210.13;;;9.90;85.12
51031;BME280;37058;41.442;23.240;2023-04-22T04:01:57;100209.16;;;10.02;84.74
51031;BME280;37058;41.442;23.240;2023-04-22T04:04:23;100228.13;;;10.13;84.52
51031;BME280;37058;41.442;23.240;2023-04-22T04:06:50;100234.09;;;10.10;84.48
51031;BME280;37058;41.442;23.240;2023-04-22T04:09:16;100227.56;;;10.11;84.13
51031;BME280;37058;41.442;23.240;2023-04-22T04:11:41;100235.56;;;10.18;83.79
51031;BME280;37058;41.442;23.240;2023-04-22T04:14:07;100244.63;;;10.24;83.64
51031;BME280;37058;41.442;23.240;2023-04-22T04:16:34;100240.25;;;10.01;84.66
51031;BME280;37058;41.442;23.240;2023-04-22T04:19:00;100240.84;;;10.03;84.88
51031;BME280;37058;41.442;23.240;2023-04-22T04:21:26;100241.84;;;10.18;84.56
51031;BME280;37058;41.442;23.240;2023-04-22T04:23:52;100244.91;;;10.44;83.67
51031;BME280;37058;41.442;23.240;2023-04-22T04:26:18;100239.72;;;10.70;82.36
51031;BME280;37058;41.442;23.240;2023-04-22T04:28:45;100237.31;;;11.05;80.56
51031;BME280;37058;41.442;23.240;2023-04-22T04:31:13;100253.34;;;11.29;79.04
51031;BME280;37058;41.442;23.240;2023-04-22T04:33:39;100247.16;;;11.44;78.20
51031;BME280;37058;41.442;23.240;2023-04-22T04:36:10;100236.34;;;11.59;77.51
51031;BME280;37058;41.442;23.240;2023-04-22T04:38:36;100250.63;;;11.66;77.45
51031;BME280;37058;41.442;23.240;2023-04-22T04:41:03;100246.53;;;11.69;77.47
51031;BME280;37058;41.442;23.240;2023-04-22T04:43:29;100252.53;;;11.66;78.60
51031;BME280;37058;41.442;23.240;2023-04-22T04:45:55;100248.28;;;11.43;78.89
51031;BME280;37058;41.442;23.240;2023-04-22T04:48:21;100247.41;;;11.37;79.75
51031;BME280;37058;41.442;23.240;2023-04-22T04:50:49;100252.56;;;11.34;79.63
51031;BME280;37058;41.442;23.240;2023-04-22T04:53:20;100261.06;;;11.32;80.33
51031;BME280;37058;41.442;23.240;2023-04-22T04:55:46;100264.19;;;11.51;80.58
51031;BME280;37058;41.442;23.240;2023-04-22T04:58:12;100264.00;;;11.63;79.42
51031;BME280;37058;41.442;23.240;2023-04-22T05:00:38;100268.25;;;11.86;78.77
51031;BME280;37058;41.442;23.240;2023-04-22T05:03:04;100274.16;;;12.10;77.90
51031;BME280;37058;41.442;23.240;2023-04-22T05:05:30;100272.84;;;12.28;76.17
51031;BME280;37058;41.442;23.240;2023-04-22T05:07:56;100272.63;;;12.40;75.42
51031;BME280;37058;41.442;23.240;2023-04-22T05:10:22;100269.66;;;12.46;75.13
51031;BME280;37058;41.442;23.240;2023-04-22T05:12:48;100261.47;;;12.51;74.94
51031;BME280;37058;41.442;23.240;2023-04-22T05:15:14;100267.78;;;12.62;75.11
51031;BME280;37058;41.442;23.240;2023-04-22T05:17:40;100265.88;;;12.73;74.82
51031;BME280;37058;41.442;23.240;2023-04-22T05:20:06;100279.06;;;12.86;74.49
51031;BME280;37058;41.442;23.240;2023-04-22T05:22:34;100274.44;;;12.97;73.60
51031;BME280;37058;41.442;23.240;2023-04-22T05:25:03;100271.72;;;13.07;72.75
51031;BME280;37058;41.442;23.240;2023-04-22T05:27:29;100272.78;;;13.06;72.87
51031;BME280;37058;41.442;23.240;2023-04-22T05:29:55;100262.16;;;13.30;71.86
51031;BME280;37058;41.442;23.240;2023-04-22T05:32:21;100264.63;;;13.52;70.94
51031;BME280;37058;41.442;23.240;2023-04-22T05:34:47;100271.16;;;13.72;70.33
51031;BME280;37058;41.442;23.240;2023-04-22T05:37:12;100271.41;;;13.91;69.43
51031;BME280;37058;41.442;23.240;2023-04-22T05:39:39;100279.88;;;14.04;68.68
51031;BME280;37058;41.442;23.240;2023-04-22T05:42:05;100268.25;;;14.33;68.41
51031;BME280;37058;41.442;23.240;2023-04-22T05:44:31;100270.41;;;14.41;67.62
51031;BME280;37058;41.442;23.240;2023-04-22T05:46:57;100277.47;;;14.63;67.46
51031;BME280;37058;41.442;23.240;2023-04-22T05:49:22;100279.25;;;14.88;66.98
51031;BME280;37058;41.442;23.240;2023-04-22T05:51:49;100277.28;;;14.93;66.69
51031;BME280;37058;41.442;23.240;2023-04-22T05:54:15;100263.09;;;14.81;66.50
51031;BME280;37058;41.442;23.240;2023-04-22T05:56:41;100272.25;;;14.66;66.45
51031;BME280;37058;41.442;23.240;2023-04-22T05:59:07;100265.31;;;14.79;65.89
51031;BME280;37058;41.442;23.240;2023-04-22T06:01:33;100268.75;;;14.95;66.21
51031;BME280;37058;41.442;23.240;2023-04-22T06:04:00;100270.25;;;15.16;65.28
51031;BME280;37058;41.442;23.240;2023-04-22T06:06:26;100274.16;;;15.45;64.47
51031;BME280;37058;41.442;23.240;2023-04-22T06:08:52;100260.75;;;15.96;63.49
51031;BME280;37058;41.442;23.240;2023-04-22T06:11:19;100265.47;;;16.39;61.23
51031;BME280;37058;41.442;23.240;2023-04-22T06:13:45;100276.03;;;16.75;59.45
51031;BME280;37058;41.442;23.240;2023-04-22T06:16:11;100273.59;;;17.11;58.30
51031;BME280;37058;41.442;23.240;2023-04-22T06:18:37;100275.75;;;17.47;55.95
51031;BME280;37058;41.442;23.240;2023-04-22T06:21:03;100276.00;;;18.25;54.36
51031;BME280;37058;41.442;23.240;2023-04-22T06:23:29;100278.81;;;19.70;50.01
51031;BME280;37058;41.442;23.240;2023-04-22T06:25:55;100272.53;;;20.67;47.09
51031;BME280;37058;41.442;23.240;2023-04-22T06:28:23;100271.75;;;20.35;46.16
51031;BME280;37058;41.442;23.240;2023-04-22T06:30:49;100280.25;;;19.22;49.32
51031;BME280;37058;41.442;23.240;2023-04-22T06:33:15;100267.03;;;18.97;48.36
51031;BME280;37058;41.442;23.240;2023-04-22T06:35:40;100272.00;;;18.58;50.29
51031;BME280;37058;41.442;23.240;2023-04-22T06:38:06;100273.47;;;18.28;50.55
51031;BME280;37058;41.442;23.240;2023-04-22T06:40:32;100267.63;;;18.16;49.72
51031;BME280;37058;41.442;23.240;2023-04-22T06:42:58;100273.88;;;18.22;50.17
51031;BME280;37058;41.442;23.240;2023-04-22T06:45:24;100267.72;;;18.25;50.73
51031;BME280;37058;41.442;23.240;2023-04-22T06:47:53;100274.28;;;18.15;49.49
51031;BME280;37058;41.442;23.240;2023-04-22T06:50:19;100272.41;;;17.96;50.89
51031;BME280;37058;41.442;23.240;2023-04-22T06:52:45;100265.47;;;17.85;51.67
51031;BME280;37058;41.442;23.240;2023-04-22T06:55:11;100264.19;;;17.77;51.98
51031;BME280;37058;41.442;23.240;2023-04-22T06:57:37;100263.53;;;17.67;52.78
51031;BME280;37058;41.442;23.240;2023-04-22T07:00:05;100275.09;;;17.55;53.31
51031;BME280;37058;41.442;23.240;2023-04-22T07:02:33;100268.44;;;17.56;53.48
51031;BME280;37058;41.442;23.240;2023-04-22T07:04:59;100271.09;;;17.47;54.28
51031;BME280;37058;41.442;23.240;2023-04-22T07:07:25;100270.00;;;17.29;55.00
51031;BME280;37058;41.442;23.240;2023-04-22T07:09:51;100286.13;;;17.22;55.42
51031;BME280;37058;41.442;23.240;2023-04-22T07:12:17;100270.38;;;17.23;54.80
51031;BME280;37058;41.442;23.240;2023-04-22T07:14:48;100269.31;;;17.19;54.79
51031;BME280;37058;41.442;23.240;2023-04-22T07:17:14;100275.09;;;17.22;50.87
51031;BME280;37058;41.442;23.240;2023-04-22T07:19:40;100266.34;;;17.15;52.80
51031;BME280;37058;41.442;23.240;2023-04-22T07:22:06;100272.84;;;17.24;50.21
51031;BME280;37058;41.442;23.240;2023-04-22T07:24:32;100271.84;;;17.34;51.37
51031;BME280;37058;41.442;23.240;2023-04-22T07:26:57;100272.91;;;17.52;50.18
51031;BME280;37058;41.442;23.240;2023-04-22T07:29:23;100271.25;;;17.70;49.70
51031;BME280;37058;41.442;23.240;2023-04-22T07:31:49;100267.19;;;17.81;47.83
51031;BME280;37058;41.442;23.240;2023-04-22T07:34:16;100277.22;;;18.05;47.61
51031;BME280;37058;41.442;23.240;2023-04-22T07:36:42;100279.31;;;18.13;47.56
51031;BME280;37058;41.442;23.240;2023-04-22T07:39:08;100279.41;;;18.22;47.47
51031;BME280;37058;41.442;23.240;2023-04-22T07:41:34;100267.09;;;18.41;46.61
51031;BME280;37058;41.442;23.240;2023-04-22T07:44:01;100271.50;;;18.56;46.83
51031;BME280;37058;41.442;23.240;2023-04-22T07:46:28;100275.25;;;18.74;46.43
51031;BME280;37058;41.442;23.240;2023-04-22T07:48:54;100269.94;;;18.78;47.58
51031;BME280;37058;41.442;23.240;2023-04-22T07:51:20;100268.59;;;18.75;48.59
51031;BME280;37058;41.442;23.240;2023-04-22T07:53:46;100272.91;;;18.68;49.91
51031;BME280;37058;41.442;23.240;2023-04-22T07:56:12;100260.19;;;18.80;50.88
51031;BME280;37058;41.442;23.240;2023-04-22T07:58:38;100254.13;;;18.92;50.64
51031;BME280;37058;41.442;23.240;2023-04-22T08:01:04;100258.78;;;19.05;49.63
51031;BME280;37058;41.442;23.240;2023-04-22T08:03:30;100261.84;;;19.04;50.15
51031;BME280;37058;41.442;23.240;2023-04-22T08:05:55;100254.56;;;19.08;49.57
51031;BME280;37058;41.442;23.240;2023-04-22T08:08:24;100260.75;;;19.27;49.96
51031;BME280;37058;41.442;23.240;2023-04-22T08:10:50;100260.06;;;19.22;48.21
51031;BME280;37058;41.442;23.240;2023-04-22T08:13:16;100253.47;;;19.09;48.34
51031;BME280;37058;41.442;23.240;2023-04-22T08:15:43;100256.69;;;19.11;47.69
51031;BME280;37058;41.442;23.240;2023-04-22T08:18:09;100249.72;;;19.14;48.08
51031;BME280;37058;41.442;23.240;2023-04-22T08:20:35;100251.69;;;19.36;47.68
51031;BME280;37058;41.442;23.240;2023-04-22T08:23:01;100248.28;;;19.39;46.85
51031;BME280;37058;41.442;23.240;2023-04-22T08:25:27;100245.09;;;19.54;47.52
51031;BME280;37058;41.442;23.240;2023-04-22T08:27:54;100240.03;;;19.70;47.05
51031;BME280;37058;41.442;23.240;2023-04-22T08:30:20;100246.63;;;19.91;46.87
51031;BME280;37058;41.442;23.240;2023-04-22T08:32:46;100237.72;;;20.03;45.89
51031;BME280;37058;41.442;23.240;2023-04-22T08:35:12;100243.50;;;20.16;46.37
51031;BME280;37058;41.442;23.240;2023-04-22T08:37:40;100245.81;;;20.31;45.80
51031;BME280;37058;41.442;23.240;2023-04-22T08:40:07;100241.09;;;20.40;44.92
51031;BME280;37058;41.442;23.240;2023-04-22T08:42:33;100240.78;;;20.50;43.78
51031;BME280;37058;41.442;23.240;2023-04-22T08:45:02;100239.53;;;20.56;42.94
51031;BME280;37058;41.442;23.240;2023-04-22T08:47:31;100235.09;;;20.55;42.62
51031;BME280;37058;41.442;23.240;2023-04-22T08:50:02;100236.59;;;20.62;42.51
51031;BME280;37058;41.442;23.240;2023-04-22T08:52:30;100228.94;;;20.59;42.68
51031;BME280;37058;41.442;23.240;2023-04-22T08:54:56;100231.53;;;20.55;42.58
51031;BME280;37058;41.442;23.240;2023-04-22T08:57:23;100226.91;;;20.42;42.96
51031;BME280;37058;41.442;23.240;2023-04-22T08:59:49;100230.78;;;20.32;43.53
51031;BME280;37058;41.442;23.240;2023-04-22T09:02:18;100216.28;;;20.35;44.03
51031;BME280;37058;41.442;23.240;2023-04-22T09:04:48;100212.53;;;20.40;42.65
51031;BME280;37058;41.442;23.240;2023-04-22T09:07:22;100210.75;;;20.52;43.43
51031;BME280;37058;41.442;23.240;2023-04-22T09:09:50;100205.44;;;20.56;43.95
51031;BME280;37058;41.442;23.240;2023-04-22T09:12:16;100199.50;;;20.49;43.67
51031;BME280;37058;41.442;23.240;2023-04-22T09:14:44;100205.03;;;20.40;44.09
51031;BME280;37058;41.442;23.240;2023-04-22T09:17:10;100198.81;;;20.43;44.63
51031;BME280;37058;41.442;23.240;2023-04-22T09:19:36;100191.00;;;20.37;43.99
51031;BME280;37058;41.442;23.240;2023-04-22T09:22:02;100195.28;;;20.51;44.48
51031;BME280;37058;41.442;23.240;2023-04-22T09:24:28;100196.75;;;20.58;45.04
51031;BME280;37058;41.442;23.240;2023-04-22T09:26:55;100188.28;;;20.63;43.67
51031;BME280;37058;41.442;23.240;2023-04-22T09:29:22;100182.56;;;20.68;44.37
51031;BME280;37058;41.442;23.240;2023-04-22T09:31:54;100177.34;;;20.75;44.24
51031;BME280;37058;41.442;23.240;2023-04-22T09:34:21;100168.03;;;20.88;44.34
51031;BME280;37058;41.442;23.240;2023-04-22T09:36:50;100156.44;;;20.95;43.32
51031;BME280;37058;41.442;23.240;2023-04-22T09:39:16;100157.91;;;21.10;42.87
51031;BME280;37058;41.442;23.240;2023-04-22T09:41:42;100155.25;;;21.13;42.10
51031;BME280;37058;41.442;23.240;2023-04-22T09:44:14;100148.72;;;21.18;42.08
51031;BME280;37058;41.442;23.240;2023-04-22T09:46:42;100152.03;;;21.03;41.58
51031;BME280;37058;41.442;23.240;2023-04-22T09:49:09;100147.31;;;20.94;41.17
51031;BME280;37058;41.442;23.240;2023-04-22T09:51:35;100151.22;;;21.02;41.36
51031;BME280;37058;41.442;23.240;2023-04-22T09:54:06;100131.25;;;21.09;40.00
51031;BME280;37058;41.442;23.240;2023-04-22T09:56:45;100133.69;;;21.19;38.11
51031;BME280;37058;41.442;23.240;2023-04-22T09:59:22;100131.22;;;21.26;39.02
51031;BME280;37058;41.442;23.240;2023-04-22T10:01:50;100126.78;;;21.34;38.55
51031;BME280;37058;41.442;23.240;2023-04-22T10:04:16;100126.63;;;21.39;37.73
51031;BME280;37058;41.442;23.240;2023-04-22T10:06:46;100123.50;;;21.32;38.47
51031;BME280;37058;41.442;23.240;2023-04-22T10:09:17;100116.66;;;21.38;38.61
51031;BME280;37058;41.442;23.240;2023-04-22T10:11:45;100122.38;;;21.41;39.18
51031;BME280;37058;41.442;23.240;2023-04-22T10:14:11;100125.97;;;21.42;38.52
51031;BME280;37058;41.442;23.240;2023-04-22T10:16:42;100126.31;;;21.40;37.15
51031;BME280;37058;41.442;23.240;2023-04-22T10:19:11;100121.25;;;21.42;36.49
51031;BME280;37058;41.442;23.240;2023-04-22T10:21:40;100119.25;;;21.34;35.90
51031;BME280;37058;41.442;23.240;2023-04-22T10:24:18;100125.81;;;21.30;36.58
51031;BME280;37058;41.442;23.240;2023-04-22T10:26:56;100108.31;;;21.29;41.08
51031;BME280;37058;41.442;23.240;2023-04-22T10:29:24;100121.34;;;20.90;46.54
51031;BME280;37058;41.442;23.240;2023-04-22T10:34:40;100114.66;;;20.39;48.33
51031;BME280;37058;41.442;23.240;2023-04-22T10:37:11;100106.97;;;20.19;48.81
51031;BME280;37058;41.442;23.240;2023-04-22T10:39:41;100106.63;;;20.11;50.13
51031;BME280;37058;41.442;23.240;2023-04-22T10:42:12;100116.38;;;20.00;50.38
51031;BME280;37058;41.442;23.240;2023-04-22T10:44:52;100105.91;;;19.80;49.33
51031;BME280;37058;41.442;23.240;2023-04-22T10:47:35;100113.41;;;19.70;49.90
51031;BME280;37058;41.442;23.240;2023-04-22T10:50:12;100122.13;;;19.55;50.99
51031;BME280;37058;41.442;23.240;2023-04-22T10:52:41;100106.41;;;19.42;51.66
51031;BME280;37058;41.442;23.240;2023-04-22T10:55:07;100103.03;;;19.45;51.93
51031;BME280;37058;41.442;23.240;2023-04-22T10:57:38;100100.69;;;19.38;52.04
51031;BME280;37058;41.442;23.240;2023-04-22T11:03:13;100108.88;;;19.43;51.35
51031;BME280;37058;41.442;23.240;2023-04-22T11:05:40;100113.13;;;19.49;51.33
51031;BME280;37058;41.442;23.240;2023-04-22T11:08:13;100109.81;;;19.39;49.83
51031;BME280;37058;41.442;23.240;2023-04-22T11:10:47;100100.53;;;19.35;50.05
51031;BME280;37058;41.442;23.240;2023-04-22T11:13:18;100108.34;;;19.33;47.88
51031;BME280;37058;41.442;23.240;2023-04-22T11:15:53;100102.28;;;19.31;49.83
51031;BME280;37058;41.442;23.240;2023-04-22T11:18:25;100107.81;;;19.22;46.70
51031;BME280;37058;41.442;23.240;2023-04-22T11:20:55;100108.25;;;19.15;43.96
51031;BME280;37058;41.442;23.240;2023-04-22T11:23:25;100107.06;;;19.08;44.37
51031;BME280;37058;41.442;23.240;2023-04-22T11:26:03;100114.56;;;19.07;44.31
51031;BME280;37058;41.442;23.240;2023-04-22T11:28:29;100110.13;;;19.06;45.03
51031;BME280;37058;41.442;23.240;2023-04-22T11:31:07;100124.81;;;19.07;45.29
51031;BME280;37058;41.442;23.240;2023-04-22T11:33:35;100131.72;;;19.18;45.48
51031;BME280;37058;41.442;23.240;2023-04-22T11:36:03;100137.91;;;19.23;45.34
51031;BME280;37058;41.442;23.240;2023-04-22T11:38:30;100137.78;;;19.28;45.94
51031;BME280;37058;41.442;23.240;2023-04-22T11:40:56;100144.50;;;19.36;46.26
51031;BME280;37058;41.442;23.240;2023-04-22T11:43:23;100155.31;;;19.46;46.33
51031;BME280;37058;41.442;23.240;2023-04-22T11:45:49;100150.44;;;19.52;44.09
51031;BME280;37058;41.442;23.240;2023-04-22T11:48:15;100138.88;;;19.50;43.04
51031;BME280;37058;41.442;23.240;2023-04-22T11:50:42;100143.25;;;19.42;43.43
51031;BME280;37058;41.442;23.240;2023-04-22T11:53:17;100137.19;;;19.40;43.39
51031;BME280;37058;41.442;23.240;2023-04-22T11:55:45;100133.75;;;19.35;42.12
51031;BME280;37058;41.442;23.240;2023-04-22T11:58:16;100136.81;;;19.24;42.43
51031;BME280;37058;41.442;23.240;2023-04-22T12:00:48;100122.47;;;19.22;42.99
51031;BME280;37058;41.442;23.240;2023-04-22T12:03:15;100129.75;;;19.18;43.25
51031;BME280;37058;41.442;23.240;2023-04-22T12:06:01;100116.25;;;19.17;41.90
51031;BME280;37058;41.442;23.240;2023-04-22T12:08:37;100125.88;;;19.19;42.94
51031;BME280;37058;41.442;23.240;2023-04-22T12:11:10;100114.78;;;19.19;41.35
51031;BME280;37058;41.442;23.240;2023-04-22T12:16:13;100122.06;;;19.07;45.85
51031;BME280;37058;41.442;23.240;2023-04-22T12:21:15;100116.44;;;18.98;45.62
51031;BME280;37058;41.442;23.240;2023-04-22T12:23:44;100113.69;;;18.98;46.46
51031;BME280;37058;41.442;23.240;2023-04-22T12:26:11;100117.00;;;18.86;46.97
51031;BME280;37058;41.442;23.240;2023-04-22T12:28:38;100115.63;;;18.75;47.01
51031;BME280;37058;41.442;23.240;2023-04-22T12:31:05;100120.75;;;18.68;46.95
51031;BME280;37058;41.442;23.240;2023-04-22T12:33:32;100116.50;;;18.61;47.31
51031;BME280;37058;41.442;23.240;2023-04-22T12:35:58;100114.03;;;18.60;45.43
51031;BME280;37058;41.442;23.240;2023-04-22T12:38:24;100104.13;;;18.59;46.29
51031;BME280;37058;41.442;23.240;2023-04-22T12:40:50;100105.75;;;18.60;46.10
51031;BME280;37058;41.442;23.240;2023-04-22T12:43:16;100100.59;;;18.67;46.24
51031;BME280;37058;41.442;23.240;2023-04-22T12:45:42;100101.09;;;18.69;44.43
51031;BME280;37058;41.442;23.240;2023-04-22T12:48:08;100086.13;;;18.70;43.72
51031;BME280;37058;41.442;23.240;2023-04-22T12:50:34;100087.13;;;18.74;43.84